sensor_id;sensor_type;location;lat;lon;timestamp;P1;durP1;ratioP1;P2;durP2;ratioP2
77544;SDS011;66672;50.328;7.610;2023-03-01T00:01:06;14.07;;;7.90;;
77544;SDS011;66672;50.328;7.610;2023-03-01T00:03:33;11.13;;;6.73;;
77544;SDS011;66672;50.328;7.610;2023-03-01T00:05:59;17.10;;;7.33;;
77544;SDS011;66672;50.328;7.610;2023-03-01T00:08:25;13.93;;;7.53;;
77544;SDS011;66672;50.328;7.610;2023-03-01T00:11:02;18.47;;;7.87;;
77544;SDS011;66672;50.328;7.610;2023-03-01T00:13:48;14.63;;;7.17;;
77544;SDS011;66672;50.328;7.610;2023-03-01T00:16:16;14.40;;;6.93;;
77544;SDS011;66672;50.328;7.610;2023-03-01T00:18:43;13.97;;;8.40;;
77544;SDS011;66672;50.328;7.610;2023-03-01T00:21:09;14.43;;;7.07;;
77544;SDS011;66672;50.328;7.610;2023-03-01T00:23:34;13.93;;;7.57;;
77544;SDS011;66672;50.328;7.610;2023-03-01T00:26:00;16.50;;;7.57;;
77544;SDS011;66672;50.328;7.610;2023-03-01T00:28:26;14.30;;;7.73;;
77544;SDS011;66672;50.328;7.610;2023-03-01T00:30:51;14.07;;;7.70;;
77544;SDS011;66672;50.328;7.610;2023-03-01T00:33:17;14.40;;;8.07;;
77544;SDS011;66672;50.328;7.610;2023-03-01T00:35:42;13.17;;;7.10;;
77544;SDS011;66672;50.328;7.610;2023-03-01T00:38:08;14.20;;;7.33;;
77544;SDS011;66672;50.328;7.610;2023-03-01T00:40:34;15.93;;;7.63;;
77544;SDS011;66672;50.328;7.610;2023-03-01T00:43:00;15.47;;;7.33;;
77544;SDS011;66672;50.328;7.610;2023-03-01T00:45:25;13.27;;;7.07;;
77544;SDS011;66672;50.328;7.610;2023-03-01T00:47:51;13.53;;;7.57;;
77544;SDS011;66672;50.328;7.610;2023-03-01T00:50:17;15.00;;;7.90;;
77544;SDS011;66672;50.328;7.610;2023-03-01T00:52:43;15.90;;;7.03;;
77544;SDS011;66672;50.328;7.610;2023-03-01T00:55:09;15.03;;;7.93;;
77544;SDS011;66672;50.328;7.610;2023-03-01T00:57:35;15.83;;;8.73;;
77544;SDS011;66672;50.328;7.610;2023-03-01T01:00:00;13.47;;;7.53;;
77544;SDS011;66672;50.328;7.610;2023-03-01T01:02:26;14.13;;;7.37;;
77544;SDS011;66672;50.328;7.610;2023-03-01T01:04:51;14.50;;;7.07;;
77544;SDS011;66672;50.328;7.610;2023-03-01T01:07:17;16.03;;;7.03;;
77544;SDS011;66672;50.328;7.610;2023-03-01T01:09:45;17.83;;;7.90;;
77544;SDS011;66672;50.328;7.610;2023-03-01T01:12:10;14.27;;;7.30;;
77544;SDS011;66672;50.328;7.610;2023-03-01T01:14:36;13.40;;;7.00;;
77544;SDS011;66672;50.328;7.610;2023-03-01T01:17:01;14.97;;;7.57;;
77544;SDS011;66672;50.328;7.610;2023-03-01T01:19:26;15.80;;;8.20;;
77544;SDS011;66672;50.328;7.610;2023-03-01T01:21:52;14.73;;;7.13;;
77544;SDS011;66672;50.328;7.610;2023-03-01T01:24:18;12.67;;;7.00;;
77544;SDS011;66672;50.328;7.610;2023-03-01T01:26:44;14.43;;;7.17;;
77544;SDS011;66672;50.328;7.610;2023-03-01T01:29:09;13.60;;;7.10;;
77544;SDS011;66672;50.328;7.610;2023-03-01T01:31:35;15.00;;;7.50;;
77544;SDS011;66672;50.328;7.610;2023-03-01T01:34:03;15.77;;;8.30;;
77544;SDS011;66672;50.328;7.610;2023-03-01T01:36:30;14.23;;;7.27;;
77544;SDS011;66672;50.328;7.610;2023-03-01T01:38:55;13.87;;;7.43;;
77544;SDS011;66672;50.328;7.610;2023-03-01T01:41:21;15.30;;;7.23;;
77544;SDS011;66672;50.328;7.610;2023-03-01T01:43:49;17.27;;;7.50;;
77544;SDS011;66672;50.328;7.610;2023-03-01T01:49:35;14.83;;;7.30;;
77544;SDS011;66672;50.328;7.610;2023-03-01T01:52:22;15.93;;;7.63;;
77544;SDS011;66672;50.328;7.610;2023-03-01T01:54:54;14.03;;;7.27;;
77544;SDS011;66672;50.328;7.610;2023-03-01T01:57:29;14.60;;;7.93;;
77544;SDS011;66672;50.328;7.610;2023-03-01T01:59:59;15.53;;;7.60;;
77544;SDS011;66672;50.328;7.610;2023-03-01T02:02:30;15.37;;;7.50;;
77544;SDS011;66672;50.328;7.610;2023-03-01T02:05:01;15.60;;;7.20;;
77544;SDS011;66672;50.328;7.610;2023-03-01T02:07:35;15.07;;;7.97;;
77544;SDS011;66672;50.328;7.610;2023-03-01T02:10:04;14.63;;;8.27;;
77544;SDS011;66672;50.328;7.610;2023-03-01T02:12:30;17.30;;;7.63;;
77544;SDS011;66672;50.328;7.610;2023-03-01T02:14:55;17.57;;;8.00;;
77544;SDS011;66672;50.328;7.610;2023-03-01T02:17:20;17.40;;;8.13;;
77544;SDS011;66672;50.328;7.610;2023-03-01T02:22:24;17.50;;;8.88;;
77544;SDS011;66672;50.328;7.610;2023-03-01T02:27:38;18.50;;;8.40;;
77544;SDS011;66672;50.328;7.610;2023-03-01T02:30:14;16.93;;;8.37;;
77544;SDS011;66672;50.328;7.610;2023-03-01T02:32:40;18.70;;;8.23;;
77544;SDS011;66672;50.328;7.610;2023-03-01T02:35:10;16.20;;;8.57;;
77544;SDS011;66672;50.328;7.610;2023-03-01T02:37:38;19.03;;;9.27;;
77544;SDS011;66672;50.328;7.610;2023-03-01T02:40:07;18.40;;;9.07;;
77544;SDS011;66672;50.328;7.610;2023-03-01T02:42:42;15.80;;;8.77;;
77544;SDS011;66672;50.328;7.610;2023-03-01T02:45:14;16.23;;;8.57;;
77544;SDS011;66672;50.328;7.610;2023-03-01T02:47:39;19.37;;;9.10;;
77544;SDS011;66672;50.328;7.610;2023-03-01T02:50:26;17.83;;;9.47;;
77544;SDS011;66672;50.328;7.610;2023-03-01T02:53:16;17.70;;;8.60;;
77544;SDS011;66672;50.328;7.610;2023-03-01T02:55:46;16.77;;;9.00;;
77544;SDS011;66672;50.328;7.610;2023-03-01T02:58:11;18.10;;;9.20;;
77544;SDS011;66672;50.328;7.610;2023-03-01T03:00:38;17.23;;;8.57;;
77544;SDS011;66672;50.328;7.610;2023-03-01T03:03:15;18.00;;;8.57;;
77544;SDS011;66672;50.328;7.610;2023-03-01T03:05:43;19.67;;;8.87;;
77544;SDS011;66672;50.328;7.610;2023-03-01T03:08:09;17.00;;;8.57;;
77544;SDS011;66672;50.328;7.610;2023-03-01T03:10:37;19.93;;;10.27;;
77544;SDS011;66672;50.328;7.610;2023-03-01T03:13:06;19.87;;;8.83;;
77544;SDS011;66672;50.328;7.610;2023-03-01T03:15:33;16.23;;;9.07;;
77544;SDS011;66672;50.328;7.610;2023-03-01T03:18:01;15.77;;;8.47;;
77544;SDS011;66672;50.328;7.610;2023-03-01T03:20:27;17.10;;;8.80;;
77544;SDS011;66672;50.328;7.610;2023-03-01T03:22:54;18.57;;;9.03;;
77544;SDS011;66672;50.328;7.610;2023-03-01T03:25:20;17.93;;;8.97;;
77544;SDS011;66672;50.328;7.610;2023-03-01T03:27:48;19.90;;;9.13;;
77544;SDS011;66672;50.328;7.610;2023-03-01T03:30:16;17.17;;;8.80;;
77544;SDS011;66672;50.328;7.610;2023-03-01T03:32:44;17.67;;;8.63;;
77544;SDS011;66672;50.328;7.610;2023-03-01T03:37:46;14.37;;;8.63;;
77544;SDS011;66672;50.328;7.610;2023-03-01T03:40:27;16.20;;;8.87;;
77544;SDS011;66672;50.328;7.610;2023-03-01T03:43:15;21.23;;;9.87;;
77544;SDS011;66672;50.328;7.610;2023-03-01T03:45:43;17.17;;;9.57;;
77544;SDS011;66672;50.328;7.610;2023-03-01T03:48:10;18.73;;;10.07;;
77544;SDS011;66672;50.328;7.610;2023-03-01T03:50:36;22.47;;;10.30;;
77544;SDS011;66672;50.328;7.610;2023-03-01T03:53:03;19.43;;;9.07;;
77544;SDS011;66672;50.328;7.610;2023-03-01T03:55:30;21.67;;;9.80;;
77544;SDS011;66672;50.328;7.610;2023-03-01T03:57:59;21.10;;;10.30;;
77544;SDS011;66672;50.328;7.610;2023-03-01T04:00:31;18.57;;;8.87;;
77544;SDS011;66672;50.328;7.610;2023-03-01T04:03:01;19.47;;;9.87;;
77544;SDS011;66672;50.328;7.610;2023-03-01T04:05:27;21.20;;;10.20;;
77544;SDS011;66672;50.328;7.610;2023-03-01T04:07:53;17.07;;;10.17;;
77544;SDS011;66672;50.328;7.610;2023-03-01T04:10:26;18.48;;;9.60;;
77544;SDS011;66672;50.328;7.610;2023-03-01T04:12:52;20.90;;;10.00;;
77544;SDS011;66672;50.328;7.610;2023-03-01T04:15:17;17.63;;;9.87;;
77544;SDS011;66672;50.328;7.610;2023-03-01T04:17:44;20.67;;;10.27;;
77544;SDS011;66672;50.328;7.610;2023-03-01T04:20:12;17.57;;;9.10;;
77544;SDS011;66672;50.328;7.610;2023-03-01T04:22:42;22.93;;;9.57;;
77544;SDS011;66672;50.328;7.610;2023-03-01T04:25:11;17.43;;;9.23;;
77544;SDS011;66672;50.328;7.610;2023-03-01T04:27:39;28.57;;;10.30;;
77544;SDS011;66672;50.328;7.610;2023-03-01T04:30:04;19.10;;;9.37;;
77544;SDS011;66672;50.328;7.610;2023-03-01T04:32:30;20.10;;;9.90;;
77544;SDS011;66672;50.328;7.610;2023-03-01T04:34:56;20.73;;;10.70;;
77544;SDS011;66672;50.328;7.610;2023-03-01T04:37:22;18.57;;;9.77;;
77544;SDS011;66672;50.328;7.610;2023-03-01T04:39:47;20.93;;;9.83;;
77544;SDS011;66672;50.328;7.610;2023-03-01T04:42:13;19.40;;;8.90;;
77544;SDS011;66672;50.328;7.610;2023-03-01T04:44:38;22.60;;;10.30;;
77544;SDS011;66672;50.328;7.610;2023-03-01T04:47:04;19.80;;;9.67;;
77544;SDS011;66672;50.328;7.610;2023-03-01T04:49:29;20.63;;;10.23;;
77544;SDS011;66672;50.328;7.610;2023-03-01T04:51:55;19.20;;;9.77;;
77544;SDS011;66672;50.328;7.610;2023-03-01T04:54:23;19.90;;;9.47;;
77544;SDS011;66672;50.328;7.610;2023-03-01T04:56:48;24.03;;;9.63;;
77544;SDS011;66672;50.328;7.610;2023-03-01T04:59:14;18.33;;;9.20;;
77544;SDS011;66672;50.328;7.610;2023-03-01T05:01:39;18.77;;;9.57;;
77544;SDS011;66672;50.328;7.610;2023-03-01T05:04:07;19.93;;;9.13;;
77544;SDS011;66672;50.328;7.610;2023-03-01T05:06:37;24.60;;;9.57;;
77544;SDS011;66672;50.328;7.610;2023-03-01T05:09:03;22.00;;;9.23;;
77544;SDS011;66672;50.328;7.610;2023-03-01T05:11:28;24.83;;;10.13;;
77544;SDS011;66672;50.328;7.610;2023-03-01T05:13:58;22.43;;;9.43;;
77544;SDS011;66672;50.328;7.610;2023-03-01T05:16:24;22.23;;;9.27;;
77544;SDS011;66672;50.328;7.610;2023-03-01T05:18:49;21.30;;;9.87;;
77544;SDS011;66672;50.328;7.610;2023-03-01T05:21:16;21.43;;;9.73;;
77544;SDS011;66672;50.328;7.610;2023-03-01T05:23:41;21.20;;;9.50;;
77544;SDS011;66672;50.328;7.610;2023-03-01T05:26:07;21.17;;;10.07;;
77544;SDS011;66672;50.328;7.610;2023-03-01T05:28:33;20.93;;;9.83;;
77544;SDS011;66672;50.328;7.610;2023-03-01T05:30:58;20.43;;;10.27;;
77544;SDS011;66672;50.328;7.610;2023-03-01T05:33:24;24.60;;;10.37;;
77544;SDS011;66672;50.328;7.610;2023-03-01T05:35:50;21.30;;;9.67;;
77544;SDS011;66672;50.328;7.610;2023-03-01T05:38:18;20.47;;;10.20;;
77544;SDS011;66672;50.328;7.610;2023-03-01T05:40:44;20.33;;;9.60;;
77544;SDS011;66672;50.328;7.610;2023-03-01T05:43:12;23.83;;;10.07;;
77544;SDS011;66672;50.328;7.610;2023-03-01T05:45:38;18.97;;;9.70;;
77544;SDS011;66672;50.328;7.610;2023-03-01T05:48:05;23.90;;;11.43;;
77544;SDS011;66672;50.328;7.610;2023-03-01T05:50:33;21.63;;;10.60;;
77544;SDS011;66672;50.328;7.610;2023-03-01T05:53:04;22.17;;;9.17;;
77544;SDS011;66672;50.328;7.610;2023-03-01T05:55:57;21.43;;;9.00;;
77544;SDS011;66672;50.328;7.610;2023-03-01T05:58:33;19.13;;;9.40;;
77544;SDS011;66672;50.328;7.610;2023-03-01T06:00:58;19.57;;;9.30;;
77544;SDS011;66672;50.328;7.610;2023-03-01T06:03:24;19.37;;;10.37;;
77544;SDS011;66672;50.328;7.610;2023-03-01T06:05:49;22.07;;;9.73;;
77544;SDS011;66672;50.328;7.610;2023-03-01T06:08:14;19.43;;;9.50;;
77544;SDS011;66672;50.328;7.610;2023-03-01T06:10:40;20.83;;;10.73;;
77544;SDS011;66672;50.328;7.610;2023-03-01T06:13:05;22.13;;;11.07;;
77544;SDS011;66672;50.328;7.610;2023-03-01T06:15:31;18.73;;;9.07;;
77544;SDS011;66672;50.328;7.610;2023-03-01T06:17:56;21.57;;;10.17;;
77544;SDS011;66672;50.328;7.610;2023-03-01T06:20:25;24.20;;;9.60;;
77544;SDS011;66672;50.328;7.610;2023-03-01T06:22:51;18.03;;;8.83;;
77544;SDS011;66672;50.328;7.610;2023-03-01T06:25:18;17.40;;;9.27;;
77544;SDS011;66672;50.328;7.610;2023-03-01T06:27:46;19.97;;;9.13;;
77544;SDS011;66672;50.328;7.610;2023-03-01T06:30:14;21.17;;;9.80;;
77544;SDS011;66672;50.328;7.610;2023-03-01T06:32:40;22.77;;;9.97;;
77544;SDS011;66672;50.328;7.610;2023-03-01T06:35:10;18.93;;;8.93;;
77544;SDS011;66672;50.328;7.610;2023-03-01T06:37:36;18.33;;;9.67;;
77544;SDS011;66672;50.328;7.610;2023-03-01T06:40:03;15.83;;;8.70;;
77544;SDS011;66672;50.328;7.610;2023-03-01T06:42:33;18.97;;;9.73;;
77544;SDS011;66672;50.328;7.610;2023-03-01T06:45:01;20.80;;;10.23;;
77544;SDS011;66672;50.328;7.610;2023-03-01T06:47:27;20.87;;;9.83;;
77544;SDS011;66672;50.328;7.610;2023-03-01T06:49:52;23.73;;;10.43;;
77544;SDS011;66672;50.328;7.610;2023-03-01T06:52:17;17.07;;;8.27;;
77544;SDS011;66672;50.328;7.610;2023-03-01T06:54:43;23.70;;;10.57;;
77544;SDS011;66672;50.328;7.610;2023-03-01T06:57:08;19.40;;;9.63;;
77544;SDS011;66672;50.328;7.610;2023-03-01T06:59:33;21.83;;;9.27;;
77544;SDS011;66672;50.328;7.610;2023-03-01T07:01:58;22.57;;;10.23;;
77544;SDS011;66672;50.328;7.610;2023-03-01T07:04:24;20.43;;;9.10;;
77544;SDS011;66672;50.328;7.610;2023-03-01T07:06:49;22.97;;;9.77;;
77544;SDS011;66672;50.328;7.610;2023-03-01T07:09:20;18.20;;;9.07;;
77544;SDS011;66672;50.328;7.610;2023-03-01T07:11:46;23.43;;;10.70;;
77544;SDS011;66672;50.328;7.610;2023-03-01T07:14:12;19.50;;;9.77;;
77544;SDS011;66672;50.328;7.610;2023-03-01T07:16:37;25.50;;;10.93;;
77544;SDS011;66672;50.328;7.610;2023-03-01T07:19:03;20.20;;;9.60;;
77544;SDS011;66672;50.328;7.610;2023-03-01T07:21:30;21.97;;;9.83;;
77544;SDS011;66672;50.328;7.610;2023-03-01T07:23:55;25.43;;;11.60;;
77544;SDS011;66672;50.328;7.610;2023-03-01T07:26:20;21.50;;;11.60;;
77544;SDS011;66672;50.328;7.610;2023-03-01T07:28:46;23.27;;;11.63;;
77544;SDS011;66672;50.328;7.610;2023-03-01T07:31:11;22.17;;;11.97;;
77544;SDS011;66672;50.328;7.610;2023-03-01T07:33:36;21.10;;;10.67;;
77544;SDS011;66672;50.328;7.610;2023-03-01T07:36:02;24.50;;;10.90;;
77544;SDS011;66672;50.328;7.610;2023-03-01T07:38:28;25.37;;;10.70;;
77544;SDS011;66672;50.328;7.610;2023-03-01T07:40:58;22.50;;;11.10;;
77544;SDS011;66672;50.328;7.610;2023-03-01T07:43:25;25.67;;;12.07;;
77544;SDS011;66672;50.328;7.610;2023-03-01T07:45:50;25.00;;;11.33;;
77544;SDS011;66672;50.328;7.610;2023-03-01T07:48:16;24.20;;;11.60;;
77544;SDS011;66672;50.328;7.610;2023-03-01T07:50:41;24.23;;;11.57;;
77544;SDS011;66672;50.328;7.610;2023-03-01T07:53:07;22.13;;;11.13;;
77544;SDS011;66672;50.328;7.610;2023-03-01T07:55:33;21.43;;;12.07;;
77544;SDS011;66672;50.328;7.610;2023-03-01T07:57:58;23.07;;;12.00;;
77544;SDS011;66672;50.328;7.610;2023-03-01T08:00:24;21.80;;;11.57;;
77544;SDS011;66672;50.328;7.610;2023-03-01T08:02:49;23.83;;;11.50;;
77544;SDS011;66672;50.328;7.610;2023-03-01T08:05:14;27.63;;;13.33;;
77544;SDS011;66672;50.328;7.610;2023-03-01T08:07:40;24.03;;;11.90;;
77544;SDS011;66672;50.328;7.610;2023-03-01T08:10:05;25.27;;;12.23;;
77544;SDS011;66672;50.328;7.610;2023-03-01T08:12:31;24.37;;;12.63;;
77544;SDS011;66672;50.328;7.610;2023-03-01T08:14:56;25.57;;;12.33;;
77544;SDS011;66672;50.328;7.610;2023-03-01T08:17:22;21.93;;;13.33;;
77544;SDS011;66672;50.328;7.610;2023-03-01T08:19:47;25.53;;;13.33;;
77544;SDS011;66672;50.328;7.610;2023-03-01T08:22:12;26.80;;;13.90;;
77544;SDS011;66672;50.328;7.610;2023-03-01T08:24:38;25.00;;;13.17;;
77544;SDS011;66672;50.328;7.610;2023-03-01T08:27:03;22.23;;;11.53;;
77544;SDS011;66672;50.328;7.610;2023-03-01T08:29:31;24.73;;;12.47;;
77544;SDS011;66672;50.328;7.610;2023-03-01T08:31:58;23.53;;;12.17;;
77544;SDS011;66672;50.328;7.610;2023-03-01T08:34:23;28.67;;;12.40;;
77544;SDS011;66672;50.328;7.610;2023-03-01T08:36:48;23.77;;;12.50;;
77544;SDS011;66672;50.328;7.610;2023-03-01T08:39:16;23.60;;;12.43;;
77544;SDS011;66672;50.328;7.610;2023-03-01T08:41:44;26.97;;;12.70;;
77544;SDS011;66672;50.328;7.610;2023-03-01T08:44:10;24.37;;;12.20;;
77544;SDS011;66672;50.328;7.610;2023-03-01T08:46:38;25.00;;;12.87;;
77544;SDS011;66672;50.328;7.610;2023-03-01T08:49:09;25.77;;;12.13;;
77544;SDS011;66672;50.328;7.610;2023-03-01T08:51:39;25.50;;;13.03;;
77544;SDS011;66672;50.328;7.610;2023-03-01T08:54:14;32.10;;;13.17;;
77544;SDS011;66672;50.328;7.610;2023-03-01T08:56:42;28.07;;;13.40;;
77544;SDS011;66672;50.328;7.610;2023-03-01T08:59:07;26.47;;;13.93;;
77544;SDS011;66672;50.328;7.610;2023-03-01T09:01:33;30.63;;;14.43;;
77544;SDS011;66672;50.328;7.610;2023-03-01T09:03:58;27.97;;;12.67;;
77544;SDS011;66672;50.328;7.610;2023-03-01T09:06:23;25.20;;;13.57;;
77544;SDS011;66672;50.328;7.610;2023-03-01T09:08:49;28.20;;;13.80;;
77544;SDS011;66672;50.328;7.610;2023-03-01T09:11:16;23.83;;;12.13;;
77544;SDS011;66672;50.328;7.610;2023-03-01T09:13:44;28.47;;;13.67;;
77544;SDS011;66672;50.328;7.610;2023-03-01T09:16:10;32.33;;;15.00;;
77544;SDS011;66672;50.328;7.610;2023-03-01T09:18:38;27.10;;;12.43;;
77544;SDS011;66672;50.328;7.610;2023-03-01T09:21:03;28.87;;;12.83;;
77544;SDS011;66672;50.328;7.610;2023-03-01T09:23:36;26.67;;;13.37;;
77544;SDS011;66672;50.328;7.610;2023-03-01T09:26:08;27.77;;;13.67;;
77544;SDS011;66672;50.328;7.610;2023-03-01T09:28:35;25.20;;;12.10;;
77544;SDS011;66672;50.328;7.610;2023-03-01T09:31:02;26.67;;;13.37;;
77544;SDS011;66672;50.328;7.610;2023-03-01T09:33:28;27.97;;;14.40;;
77544;SDS011;66672;50.328;7.610;2023-03-01T09:35:58;27.87;;;13.93;;
77544;SDS011;66672;50.328;7.610;2023-03-01T09:38:24;29.03;;;12.97;;
77544;SDS011;66672;50.328;7.610;2023-03-01T09:40:50;26.80;;;13.97;;
77544;SDS011;66672;50.328;7.610;2023-03-01T09:43:18;31.83;;;13.87;;
77544;SDS011;66672;50.328;7.610;2023-03-01T09:46:04;29.13;;;14.13;;
77544;SDS011;66672;50.328;7.610;2023-03-01T09:48:37;30.67;;;13.97;;
77544;SDS011;66672;50.328;7.610;2023-03-01T09:51:09;35.73;;;13.57;;
77544;SDS011;66672;50.328;7.610;2023-03-01T09:53:40;27.30;;;14.10;;
77544;SDS011;66672;50.328;7.610;2023-03-01T09:56:09;25.73;;;13.73;;
77544;SDS011;66672;50.328;7.610;2023-03-01T10:09:36;25.20;;;11.63;;
77544;SDS011;66672;50.328;7.610;2023-03-01T10:12:06;24.37;;;12.10;;
77544;SDS011;66672;50.328;7.610;2023-03-01T10:14:36;25.73;;;13.63;;
77544;SDS011;66672;50.328;7.610;2023-03-01T10:17:26;28.03;;;13.77;;
77544;SDS011;66672;50.328;7.610;2023-03-01T10:20:20;28.70;;;13.47;;
77544;SDS011;66672;50.328;7.610;2023-03-01T10:22:48;26.27;;;12.57;;
77544;SDS011;66672;50.328;7.610;2023-03-01T10:25:26;27.95;;;13.00;;
77544;SDS011;66672;50.328;7.610;2023-03-01T10:28:02;26.27;;;12.87;;
77544;SDS011;66672;50.328;7.610;2023-03-01T10:30:51;24.50;;;13.30;;
77544;SDS011;66672;50.328;7.610;2023-03-01T10:33:20;25.50;;;13.00;;
77544;SDS011;66672;50.328;7.610;2023-03-01T10:35:49;24.53;;;12.20;;
77544;SDS011;66672;50.328;7.610;2023-03-01T10:38:15;25.20;;;12.93;;
77544;SDS011;66672;50.328;7.610;2023-03-01T10:40:57;26.63;;;13.30;;
77544;SDS011;66672;50.328;7.610;2023-03-01T10:43:27;26.57;;;12.60;;
77544;SDS011;66672;50.328;7.610;2023-03-01T10:46:15;22.73;;;11.83;;
77544;SDS011;66672;50.328;7.610;2023-03-01T10:49:52;20.50;;;10.73;;
77544;SDS011;66672;50.328;7.610;2023-03-01T10:51:47;19.63;;;10.70;;
77544;SDS011;66672;50.328;7.610;2023-03-01T10:54:22;21.23;;;10.33;;
77544;SDS011;66672;50.328;7.610;2023-03-01T10:57:02;20.63;;;10.13;;
77544;SDS011;66672;50.328;7.610;2023-03-01T10:59:34;20.60;;;10.50;;
77544;SDS011;66672;50.328;7.610;2023-03-01T11:07:24;19.87;;;10.83;;
77544;SDS011;66672;50.328;7.610;2023-03-01T11:09:49;20.87;;;10.20;;
77544;SDS011;66672;50.328;7.610;2023-03-01T11:12:15;20.83;;;10.77;;
77544;SDS011;66672;50.328;7.610;2023-03-01T11:14:48;20.13;;;10.17;;
77544;SDS011;66672;50.328;7.610;2023-03-01T11:17:18;20.60;;;10.60;;
77544;SDS011;66672;50.328;7.610;2023-03-01T11:20:05;22.73;;;11.07;;
77544;SDS011;66672;50.328;7.610;2023-03-01T11:22:34;21.13;;;10.17;;
77544;SDS011;66672;50.328;7.610;2023-03-01T11:25:01;21.83;;;11.17;;
77544;SDS011;66672;50.328;7.610;2023-03-01T11:29:54;17.57;;;8.73;;
77544;SDS011;66672;50.328;7.610;2023-03-01T11:32:24;17.17;;;9.97;;
77544;SDS011;66672;50.328;7.610;2023-03-01T11:37:40;19.67;;;10.17;;
77544;SDS011;66672;50.328;7.610;2023-03-01T11:40:25;21.23;;;11.13;;
77544;SDS011;66672;50.328;7.610;2023-03-01T11:51:14;19.53;;;9.70;;
77544;SDS011;66672;50.328;7.610;2023-03-01T11:56:31;18.10;;;9.23;;
77544;SDS011;66672;50.328;7.610;2023-03-01T12:07:25;17.07;;;9.73;;
77544;SDS011;66672;50.328;7.610;2023-03-01T12:26:22;14.07;;;8.15;;
77544;SDS011;66672;50.328;7.610;2023-03-01T12:34:29;12.85;;;8.48;;
77544;SDS011;66672;50.328;7.610;2023-03-01T12:40:03;13.65;;;8.98;;
77544;SDS011;66672;50.328;7.610;2023-03-01T12:48:04;12.80;;;7.82;;
77544;SDS011;66672;50.328;7.610;2023-03-01T12:50:44;14.43;;;8.20;;
77544;SDS011;66672;50.328;7.610;2023-03-01T12:56:05;12.27;;;7.70;;
77544;SDS011;66672;50.328;7.610;2023-03-01T13:17:48;11.55;;;7.60;;
77544;SDS011;66672;50.328;7.610;2023-03-01T13:20:15;9.73;;;7.35;;
77544;SDS011;66672;50.328;7.610;2023-03-01T13:22:42;13.85;;;7.70;;
77544;SDS011;66672;50.328;7.610;2023-03-01T13:25:14;12.55;;;7.50;;
77544;SDS011;66672;50.328;7.610;2023-03-01T13:27:42;11.85;;;7.25;;
77544;SDS011;66672;50.328;7.610;2023-03-01T13:30:38;10.15;;;6.90;;
77544;SDS011;66672;50.328;7.610;2023-03-01T13:35:48;11.15;;;7.32;;
77544;SDS011;66672;50.328;7.610;2023-03-01T13:41:13;9.95;;;6.50;;
77544;SDS011;66672;50.328;7.610;2023-03-01T13:43:40;11.13;;;7.20;;
77544;SDS011;66672;50.328;7.610;2023-03-01T13:46:09;12.18;;;7.20;;
77544;SDS011;66672;50.328;7.610;2023-03-01T13:48:40;11.05;;;6.43;;
77544;SDS011;66672;50.328;7.610;2023-03-01T13:51:07;10.20;;;5.88;;
77544;SDS011;66672;50.328;7.610;2023-03-01T13:53:35;11.07;;;6.70;;
77544;SDS011;66672;50.328;7.610;2023-03-01T13:56:19;8.27;;;5.43;;
77544;SDS011;66672;50.328;7.610;2023-03-01T13:58:53;12.43;;;5.78;;
77544;SDS011;66672;50.328;7.610;2023-03-01T14:01:24;8.75;;;5.80;;
77544;SDS011;66672;50.328;7.610;2023-03-01T14:03:53;9.88;;;5.55;;
77544;SDS011;66672;50.328;7.610;2023-03-01T14:06:23;10.10;;;5.68;;
77544;SDS011;66672;50.328;7.610;2023-03-01T14:14:18;10.60;;;5.55;;
77544;SDS011;66672;50.328;7.610;2023-03-01T14:17:19;10.55;;;5.05;;
77544;SDS011;66672;50.328;7.610;2023-03-01T14:19:58;9.65;;;5.07;;
77544;SDS011;66672;50.328;7.610;2023-03-01T14:22:27;7.85;;;4.65;;
77544;SDS011;66672;50.328;7.610;2023-03-01T14:24:59;8.93;;;5.30;;
77544;SDS011;66672;50.328;7.610;2023-03-01T14:27:28;8.50;;;5.25;;
77544;SDS011;66672;50.328;7.610;2023-03-01T14:29:59;8.98;;;5.38;;
77544;SDS011;66672;50.328;7.610;2023-03-01T14:32:29;9.02;;;5.38;;
77544;SDS011;66672;50.328;7.610;2023-03-01T14:34:57;9.30;;;4.90;;
77544;SDS011;66672;50.328;7.610;2023-03-01T14:39:57;8.77;;;4.68;;
77544;SDS011;66672;50.328;7.610;2023-03-01T14:42:24;9.45;;;5.10;;
77544;SDS011;66672;50.328;7.610;2023-03-01T14:44:52;8.23;;;4.97;;
77544;SDS011;66672;50.328;7.610;2023-03-01T14:47:25;11.38;;;5.57;;
77544;SDS011;66672;50.328;7.610;2023-03-01T14:49:56;10.07;;;5.32;;
77544;SDS011;66672;50.328;7.610;2023-03-01T14:52:44;8.95;;;4.93;;
77544;SDS011;66672;50.328;7.610;2023-03-01T14:55:34;9.90;;;5.57;;
77544;SDS011;66672;50.328;7.610;2023-03-01T14:58:09;8.43;;;4.63;;
77544;SDS011;66672;50.328;7.610;2023-03-01T15:00:38;7.93;;;4.18;;
77544;SDS011;66672;50.328;7.610;2023-03-01T15:03:18;10.05;;;4.93;;
77544;SDS011;66672;50.328;7.610;2023-03-01T15:05:49;9.27;;;4.60;;
77544;SDS011;66672;50.328;7.610;2023-03-01T15:08:25;8.05;;;4.90;;
77544;SDS011;66672;50.328;7.610;2023-03-01T15:10:58;9.07;;;6.13;;
77544;SDS011;66672;50.328;7.610;2023-03-01T15:13:43;10.43;;;5.45;;
77544;SDS011;66672;50.328;7.610;2023-03-01T15:16:12;11.13;;;5.25;;
77544;SDS011;66672;50.328;7.610;2023-03-01T15:18:43;10.52;;;5.40;;
77544;SDS011;66672;50.328;7.610;2023-03-01T15:26:21;9.30;;;4.90;;
77544;SDS011;66672;50.328;7.610;2023-03-01T15:28:49;9.43;;;5.00;;
77544;SDS011;66672;50.328;7.610;2023-03-01T15:31:24;9.70;;;4.55;;
77544;SDS011;66672;50.328;7.610;2023-03-01T15:33:52;8.73;;;4.70;;
77544;SDS011;66672;50.328;7.610;2023-03-01T15:38:56;10.15;;;4.75;;
77544;SDS011;66672;50.328;7.610;2023-03-01T15:43:50;7.22;;;3.90;;
77544;SDS011;66672;50.328;7.610;2023-03-01T15:46:31;8.25;;;4.57;;
77544;SDS011;66672;50.328;7.610;2023-03-01T15:49:02;9.43;;;4.63;;
77544;SDS011;66672;50.328;7.610;2023-03-01T15:53:58;8.70;;;4.28;;
77544;SDS011;66672;50.328;7.610;2023-03-01T15:56:25;8.75;;;4.15;;
77544;SDS011;66672;50.328;7.610;2023-03-01T15:58:50;8.45;;;4.63;;
77544;SDS011;66672;50.328;7.610;2023-03-01T16:01:16;8.18;;;4.53;;
77544;SDS011;66672;50.328;7.610;2023-03-01T16:03:42;7.70;;;4.28;;
77544;SDS011;66672;50.328;7.610;2023-03-01T16:06:11;11.63;;;4.82;;
77544;SDS011;66672;50.328;7.610;2023-03-01T16:08:37;9.55;;;4.90;;
77544;SDS011;66672;50.328;7.610;2023-03-01T16:11:04;7.40;;;4.22;;
77544;SDS011;66672;50.328;7.610;2023-03-01T16:13:35;9.55;;;4.45;;
77544;SDS011;66672;50.328;7.610;2023-03-01T16:16:00;7.90;;;4.18;;
77544;SDS011;66672;50.328;7.610;2023-03-01T16:18:26;9.25;;;4.63;;
77544;SDS011;66672;50.328;7.610;2023-03-01T16:20:51;7.88;;;4.20;;
77544;SDS011;66672;50.328;7.610;2023-03-01T16:23:17;8.60;;;4.30;;
77544;SDS011;66672;50.328;7.610;2023-03-01T16:25:42;8.07;;;4.45;;
77544;SDS011;66672;50.328;7.610;2023-03-01T16:28:08;8.60;;;4.40;;
77544;SDS011;66672;50.328;7.610;2023-03-01T16:30:35;8.65;;;4.30;;
77544;SDS011;66672;50.328;7.610;2023-03-01T16:33:02;8.18;;;4.07;;
77544;SDS011;66672;50.328;7.610;2023-03-01T16:35:31;9.85;;;4.20;;
77544;SDS011;66672;50.328;7.610;2023-03-01T16:37:56;9.43;;;4.22;;
77544;SDS011;66672;50.328;7.610;2023-03-01T16:40:25;7.18;;;4.63;;
77544;SDS011;66672;50.328;7.610;2023-03-01T16:42:52;7.63;;;4.07;;
77544;SDS011;66672;50.328;7.610;2023-03-01T16:45:18;11.55;;;4.78;;
77544;SDS011;66672;50.328;7.610;2023-03-01T16:47:44;8.15;;;4.47;;
77544;SDS011;66672;50.328;7.610;2023-03-01T16:50:09;9.13;;;5.25;;
77544;SDS011;66672;50.328;7.610;2023-03-01T16:52:35;10.85;;;5.10;;